sensor_id;sensor_type;location;lat;lon;timestamp;pressure;altitude;pressure_sealevel;temperature;humidity
2681;BME280;1350;42.134;24.708;2022-12-07T00:01:19;99598.81;;;9.41;100.00
2681;BME280;1350;42.134;24.708;2022-12-07T00:03:48;99608.78;;;9.36;100.00
2681;BME280;1350;42.134;24.708;2022-12-07T00:06:16;99611.97;;;9.24;100.00
2681;BME280;1350;42.134;24.708;2022-12-07T00:08:44;99613.13;;;9.37;100.00
2681;BME280;1350;42.134;24.708;2022-12-07T00:11:12;99609.13;;;9.29;100.00
2681;BME280;1350;42.134;24.708;2022-12-07T00:13:40;99612.41;;;9.34;100.00
2681;BME280;1350;42.134;24.708;2022-12-07T00:16:10;99608.28;;;9.28;100.00
2681;BME280;1350;42.134;24.708;2022-12-07T00:18:38;99607.47;;;9.26;100.00
2681;BME280;1350;42.134;24.708;2022-12-07T00:21:07;99607.91;;;9.36;100.00
2681;BME280;1350;42.134;24.708;2022-12-07T00:23:35;99613.22;;;9.36;100.00
2681;BME280;1350;42.134;24.708;2022-12-07T00:26:06;99606.63;;;9.26;100.00
2681;BME280;1350;42.134;24.708;2022-12-07T00:28:33;99615.19;;;9.12;100.00
2681;BME280;1350;42.134;24.708;2022-12-07T00:31:02;99620.69;;;9.08;100.00
2681;BME280;1350;42.134;24.708;2022-12-07T00:33:30;99610.13;;;9.08;100.00
2681;BME280;1350;42.134;24.708;2022-12-07T00:35:58;99610.91;;;9.10;100.00
2681;BME280;1350;42.134;24.708;2022-12-07T00:38:28;99615.69;;;9.20;100.00
2681;BME280;1350;42.134;24.708;2022-12-07T00:40:56;99616.94;;;9.13;100.00
2681;BME280;1350;42.134;24.708;2022-12-07T00:43:23;99605.69;;;9.08;100.00
2681;BME280;1350;42.134;24.708;2022-12-07T00:45:50;99613.00;;;8.83;100.00
2681;BME280;1350;42.134;24.708;2022-12-07T00:48:16;99607.50;;;8.88;100.00
2681;BME280;1350;42.134;24.708;2022-12-07T00:50:44;99593.50;;;8.67;100.00
2681;BME280;1350;42.134;24.708;2022-12-07T00:53:11;99598.53;;;8.53;100.00
2681;BME280;1350;42.134;24.708;2022-12-07T00:55:38;99599.75;;;8.65;100.00
2681;BME280;1350;42.134;24.708;2022-12-07T00:58:05;99598.91;;;8.64;100.00
2681;BME280;1350;42.134;24.708;2022-12-07T01:00:32;99598.78;;;8.47;100.00
2681;BME280;1350;42.134;24.708;2022-12-07T01:03:00;99593.66;;;8.63;100.00
2681;BME280;1350;42.134;24.708;2022-12-07T01:05:26;99598.50;;;8.73;100.00
2681;BME280;1350;42.134;24.708;2022-12-07T01:07:54;99600.75;;;8.62;100.00
2681;BME280;1350;42.134;24.708;2022-12-07T01:10:21;99599.03;;;8.61;100.00
2681;BME280;1350;42.134;24.708;2022-12-07T01:12:48;99600.41;;;8.70;100.00
2681;BME280;1350;42.134;24.708;2022-12-07T01:15:15;99594.19;;;8.71;100.00
2681;BME280;1350;42.134;24.708;2022-12-07T01:17:41;99581.91;;;8.70;100.00
2681;BME280;1350;42.134;24.708;2022-12-07T01:20:09;99583.09;;;8.63;100.00
2681;BME280;1350;42.134;24.708;2022-12-07T01:22:36;99586.91;;;8.76;100.00
2681;BME280;1350;42.134;24.708;2022-12-07T01:25:06;99581.63;;;8.76;100.00
2681;BME280;1350;42.134;24.708;2022-12-07T01:27:33;99585.28;;;8.73;100.00
2681;BME280;1350;42.134;24.708;2022-12-07T01:30:01;99579.88;;;8.76;100.00
2681;BME280;1350;42.134;24.708;2022-12-07T01:32:28;99579.66;;;8.81;100.00
2681;BME280;1350;42.134;24.708;2022-12-07T01:34:55;99576.88;;;8.84;100.00
2681;BME280;1350;42.134;24.708;2022-12-07T01:37:22;99567.06;;;8.86;100.00
2681;BME280;1350;42.134;24.708;2022-12-07T01:39:49;99564.22;;;8.72;100.00
2681;BME280;1350;42.134;24.708;2022-12-07T01:42:18;99566.56;;;8.78;100.00
2681;BME280;1350;42.134;24.708;2022-12-07T01:47:52;99560.50;;;8.76;100.00
2681;BME280;1350;42.134;24.708;2022-12-07T01:50:21;99560.84;;;8.68;100.00
2681;BME280;1350;42.134;24.708;2022-12-07T01:52:51;99555.94;;;8.79;100.00
2681;BME280;1350;42.134;24.708;2022-12-07T01:55:19;99560.94;;;8.46;100.00
2681;BME280;1350;42.134;24.708;2022-12-07T01:57:50;99559.59;;;8.56;100.00
2681;BME280;1350;42.134;24.708;2022-12-07T02:00:19;99559.69;;;8.35;100.00
2681;BME280;1350;42.134;24.708;2022-12-07T02:02:48;99557.44;;;8.46;100.00
2681;BME280;1350;42.134;24.708;2022-12-07T02:05:17;99551.81;;;8.53;100.00
2681;BME280;1350;42.134;24.708;2022-12-07T02:07:46;99549.69;;;8.62;100.00
2681;BME280;1350;42.134;24.708;2022-12-07T02:10:15;99548.81;;;8.61;100.00
2681;BME280;1350;42.134;24.708;2022-12-07T02:12:42;99558.28;;;8.46;100.00
2681;BME280;1350;42.134;24.708;2022-12-07T02:15:12;99552.66;;;8.54;100.00
2681;BME280;1350;42.134;24.708;2022-12-07T02:17:45;99550.16;;;8.51;100.00
2681;BME280;1350;42.134;24.708;2022-12-07T02:20:23;99539.25;;;8.58;100.00
2681;BME280;1350;42.134;24.708;2022-12-07T02:23:23;99537.34;;;8.62;100.00
2681;BME280;1350;42.134;24.708;2022-12-07T02:29:09;99531.03;;;8.65;100.00
2681;BME280;1350;42.134;24.708;2022-12-07T02:31:42;99531.31;;;8.58;100.00
2681;BME280;1350;42.134;24.708;2022-12-07T02:34:14;99529.75;;;8.54;100.00
2681;BME280;1350;42.134;24.708;2022-12-07T02:36:47;99514.94;;;8.50;100.00
2681;BME280;1350;42.134;24.708;2022-12-07T02:39:19;99528.25;;;8.68;100.00
2681;BME280;1350;42.134;24.708;2022-12-07T02:41:48;99538.25;;;8.61;100.00
2681;BME280;1350;42.134;24.708;2022-12-07T02:44:21;99528.97;;;8.71;100.00
2681;BME280;1350;42.134;24.708;2022-12-07T02:46:53;99528.13;;;8.89;100.00
2681;BME280;1350;42.134;24.708;2022-12-07T02:49:22;99526.44;;;8.88;100.00
2681;BME280;1350;42.134;24.708;2022-12-07T02:51:52;99531.44;;;8.94;100.00
2681;BME280;1350;42.134;24.708;2022-12-07T02:54:20;99514.53;;;8.78;100.00
2681;BME280;1350;42.134;24.708;2022-12-07T02:56:50;99509.47;;;8.74;100.00
2681;BME280;1350;42.134;24.708;2022-12-07T02:59:29;99503.50;;;8.70;100.00
2681;BME280;1350;42.134;24.708;2022-12-07T03:02:06;99505.47;;;8.65;100.00
2681;BME280;1350;42.134;24.708;2022-12-07T03:04:44;99511.75;;;8.63;100.00
2681;BME280;1350;42.134;24.708;2022-12-07T03:07:20;99504.63;;;8.65;100.00
2681;BME280;1350;42.134;24.708;2022-12-07T03:09:54;99503.56;;;8.69;100.00
2681;BME280;1350;42.134;24.708;2022-12-07T03:12:29;99509.97;;;8.63;100.00
2681;BME280;1350;42.134;24.708;2022-12-07T03:15:02;99510.91;;;8.81;100.00
2681;BME280;1350;42.134;24.708;2022-12-07T03:17:32;99515.94;;;8.87;100.00
2681;BME280;1350;42.134;24.708;2022-12-07T03:20:04;99519.91;;;8.77;100.00
2681;BME280;1350;42.134;24.708;2022-12-07T03:22:34;99521.28;;;8.85;100.00
2681;BME280;1350;42.134;24.708;2022-12-07T03:25:04;99525.03;;;8.80;100.00
2681;BME280;1350;42.134;24.708;2022-12-07T03:27:35;99524.28;;;8.78;100.00
2681;BME280;1350;42.134;24.708;2022-12-07T03:30:08;99524.22;;;8.79;100.00
2681;BME280;1350;42.134;24.708;2022-12-07T03:32:38;99522.88;;;8.50;100.00
2681;BME280;1350;42.134;24.708;2022-12-07T03:35:12;99519.59;;;8.45;100.00
2681;BME280;1350;42.134;24.708;2022-12-07T03:37:45;99524.19;;;8.61;100.00
2681;BME280;1350;42.134;24.708;2022-12-07T03:40:19;99516.72;;;8.70;100.00
2681;BME280;1350;42.134;24.708;2022-12-07T03:42:50;99521.06;;;8.32;100.00
2681;BME280;1350;42.134;24.708;2022-12-07T03:45:22;99516.34;;;8.19;100.00
2681;BME280;1350;42.134;24.708;2022-12-07T03:47:57;99519.84;;;8.39;100.00
2681;BME280;1350;42.134;24.708;2022-12-07T03:50:33;99519.03;;;8.57;100.00
2681;BME280;1350;42.134;24.708;2022-12-07T03:53:09;99516.63;;;8.72;100.00
2681;BME280;1350;42.134;24.708;2022-12-07T03:55:42;99505.19;;;8.52;100.00
2681;BME280;1350;42.134;24.708;2022-12-07T03:58:12;99511.50;;;8.69;100.00
2681;BME280;1350;42.134;24.708;2022-12-07T04:00:41;99519.34;;;8.70;100.00
2681;BME280;1350;42.134;24.708;2022-12-07T04:03:09;99510.91;;;8.81;100.00
2681;BME280;1350;42.134;24.708;2022-12-07T04:05:36;99512.97;;;8.55;100.00
2681;BME280;1350;42.134;24.708;2022-12-07T04:08:03;99507.44;;;8.41;100.00
2681;BME280;1350;42.134;24.708;2022-12-07T04:10:30;99505.47;;;8.46;100.00
2681;BME280;1350;42.134;24.708;2022-12-07T04:12:57;99505.88;;;8.37;100.00
2681;BME280;1350;42.134;24.708;2022-12-07T04:15:23;99507.84;;;8.32;100.00
2681;BME280;1350;42.134;24.708;2022-12-07T04:17:52;99498.84;;;8.36;100.00
2681;BME280;1350;42.134;24.708;2022-12-07T04:20:19;99500.44;;;8.40;100.00
2681;BME280;1350;42.134;24.708;2022-12-07T04:22:46;99493.50;;;8.38;100.00
2681;BME280;1350;42.134;24.708;2022-12-07T04:25:13;99493.75;;;8.52;100.00
2681;BME280;1350;42.134;24.708;2022-12-07T04:27:39;99485.38;;;8.61;100.00
2681;BME280;1350;42.134;24.708;2022-12-07T04:30:07;99481.34;;;8.73;100.00
2681;BME280;1350;42.134;24.708;2022-12-07T04:32:34;99489.56;;;8.67;100.00
2681;BME280;1350;42.134;24.708;2022-12-07T04:35:03;99487.97;;;8.63;100.00
2681;BME280;1350;42.134;24.708;2022-12-07T04:37:29;99489.78;;;8.81;100.00
2681;BME280;1350;42.134;24.708;2022-12-07T04:39:56;99488.84;;;8.82;100.00
2681;BME280;1350;42.134;24.708;2022-12-07T04:42:23;99486.03;;;8.85;100.00
2681;BME280;1350;42.134;24.708;2022-12-07T04:44:50;99492.13;;;8.87;100.00
2681;BME280;1350;42.134;24.708;2022-12-07T04:47:17;99489.06;;;8.77;100.00
2681;BME280;1350;42.134;24.708;2022-12-07T04:49:44;99481.41;;;8.71;100.00
2681;BME280;1350;42.134;24.708;2022-12-07T04:52:12;99487.72;;;8.69;100.00
2681;BME280;1350;42.134;24.708;2022-12-07T04:54:38;99486.97;;;8.65;100.00
2681;BME280;1350;42.134;24.708;2022-12-07T04:57:05;99489.41;;;8.70;100.00
2681;BME280;1350;42.134;24.708;2022-12-07T04:59:32;99491.97;;;8.52;100.00
2681;BME280;1350;42.134;24.708;2022-12-07T05:01:58;99493.75;;;8.52;100.00
2681;BME280;1350;42.134;24.708;2022-12-07T05:04:25;99499.03;;;8.52;100.00
2681;BME280;1350;42.134;24.708;2022-12-07T05:06:52;99507.03;;;8.69;100.00
2681;BME280;1350;42.134;24.708;2022-12-07T05:09:21;99506.03;;;8.53;100.00
2681;BME280;1350;42.134;24.708;2022-12-07T05:11:48;99499.88;;;8.52;100.00
2681;BME280;1350;42.134;24.708;2022-12-07T05:14:16;99501.31;;;8.59;100.00
2681;BME280;1350;42.134;24.708;2022-12-07T05:16:44;99500.41;;;8.61;100.00
2681;BME280;1350;42.134;24.708;2022-12-07T05:19:12;99501.47;;;8.56;100.00
2681;BME280;1350;42.134;24.708;2022-12-07T05:21:39;99505.75;;;8.59;100.00
2681;BME280;1350;42.134;24.708;2022-12-07T05:24:06;99505.38;;;8.48;100.00
2681;BME280;1350;42.134;24.708;2022-12-07T05:26:36;99498.94;;;8.53;100.00
2681;BME280;1350;42.134;24.708;2022-12-07T05:29:03;99510.97;;;8.61;100.00
2681;BME280;1350;42.134;24.708;2022-12-07T05:31:30;99512.31;;;8.50;100.00
2681;BME280;1350;42.134;24.708;2022-12-07T05:33:57;99519.47;;;8.48;100.00
2681;BME280;1350;42.134;24.708;2022-12-07T05:36:24;99521.47;;;8.62;100.00
2681;BME280;1350;42.134;24.708;2022-12-07T05:38:51;99521.78;;;8.36;100.00
2681;BME280;1350;42.134;24.708;2022-12-07T05:41:18;99515.72;;;8.34;100.00
2681;BME280;1350;42.134;24.708;2022-12-07T05:44:09;99507.72;;;8.35;100.00
2681;BME280;1350;42.134;24.708;2022-12-07T05:46:36;99514.69;;;8.36;100.00
2681;BME280;1350;42.134;24.708;2022-12-07T05:49:03;99514.56;;;8.39;100.00
2681;BME280;1350;42.134;24.708;2022-12-07T05:51:30;99500.97;;;8.48;100.00
2681;BME280;1350;42.134;24.708;2022-12-07T05:53:56;99517.53;;;8.71;100.00
2681;BME280;1350;42.134;24.708;2022-12-07T05:56:23;99516.50;;;8.75;100.00
2681;BME280;1350;42.134;24.708;2022-12-07T05:58:52;99523.78;;;8.70;100.00
2681;BME280;1350;42.134;24.708;2022-12-07T06:01:37;99514.06;;;8.70;100.00
2681;BME280;1350;42.134;24.708;2022-12-07T06:04:04;99517.78;;;8.85;100.00
2681;BME280;1350;42.134;24.708;2022-12-07T06:06:31;99515.56;;;8.94;100.00
2681;BME280;1350;42.134;24.708;2022-12-07T06:08:57;99519.84;;;8.97;100.00
2681;BME280;1350;42.134;24.708;2022-12-07T06:11:24;99524.22;;;9.16;100.00
2681;BME280;1350;42.134;24.708;2022-12-07T06:14:08;99533.19;;;9.12;100.00
2681;BME280;1350;42.134;24.708;2022-12-07T06:16:37;99520.25;;;9.25;100.00
2681;BME280;1350;42.134;24.708;2022-12-07T06:19:03;99523.28;;;9.17;100.00
2681;BME280;1350;42.134;24.708;2022-12-07T06:21:30;99519.84;;;8.97;100.00
2681;BME280;1350;42.134;24.708;2022-12-07T06:23:57;99527.84;;;8.77;100.00
2681;BME280;1350;42.134;24.708;2022-12-07T06:26:24;99526.19;;;8.55;100.00
2681;BME280;1350;42.134;24.708;2022-12-07T06:28:50;99526.44;;;8.49;100.00
2681;BME280;1350;42.134;24.708;2022-12-07T06:31:17;99521.50;;;8.42;100.00
2681;BME280;1350;42.134;24.708;2022-12-07T06:33:45;99522.91;;;8.69;100.00
2681;BME280;1350;42.134;24.708;2022-12-07T06:36:12;99520.78;;;8.96;100.00
2681;BME280;1350;42.134;24.708;2022-12-07T06:38:39;99527.00;;;9.13;100.00
2681;BME280;1350;42.134;24.708;2022-12-07T06:41:06;99528.19;;;9.25;100.00
2681;BME280;1350;42.134;24.708;2022-12-07T06:43:33;99527.41;;;9.23;100.00
2681;BME280;1350;42.134;24.708;2022-12-07T06:45:59;99530.56;;;8.94;100.00
2681;BME280;1350;42.134;24.708;2022-12-07T06:48:26;99531.84;;;8.85;100.00
2681;BME280;1350;42.134;24.708;2022-12-07T06:50:54;99529.53;;;9.33;100.00
2681;BME280;1350;42.134;24.708;2022-12-07T06:53:21;99530.34;;;9.88;100.00
2681;BME280;1350;42.134;24.708;2022-12-07T06:55:48;99534.63;;;10.24;100.00
2681;BME280;1350;42.134;24.708;2022-12-07T06:58:15;99523.94;;;10.43;100.00
2681;BME280;1350;42.134;24.708;2022-12-07T07:00:42;99521.63;;;10.70;100.00
2681;BME280;1350;42.134;24.708;2022-12-07T07:03:09;99521.03;;;10.80;100.00
2681;BME280;1350;42.134;24.708;2022-12-07T07:05:36;99511.91;;;11.01;100.00
2681;BME280;1350;42.134;24.708;2022-12-07T07:08:04;99515.34;;;11.19;100.00
2681;BME280;1350;42.134;24.708;2022-12-07T07:10:31;99516.09;;;11.36;100.00
2681;BME280;1350;42.134;24.708;2022-12-07T07:12:57;99522.25;;;11.52;100.00
2681;BME280;1350;42.134;24.708;2022-12-07T07:15:24;99526.97;;;11.47;100.00
2681;BME280;1350;42.134;24.708;2022-12-07T07:17:51;99522.44;;;11.34;100.00
2681;BME280;1350;42.134;24.708;2022-12-07T07:20:18;99526.72;;;11.36;100.00
2681;BME280;1350;42.134;24.708;2022-12-07T07:22:44;99531.78;;;11.25;100.00
2681;BME280;1350;42.134;24.708;2022-12-07T07:25:13;99532.03;;;11.36;100.00
2681;BME280;1350;42.134;24.708;2022-12-07T07:27:39;99525.44;;;11.43;100.00
2681;BME280;1350;42.134;24.708;2022-12-07T07:30:07;99521.31;;;11.53;100.00
2681;BME280;1350;42.134;24.708;2022-12-07T07:32:34;99516.00;;;11.53;100.00
2681;BME280;1350;42.134;24.708;2022-12-07T07:35:01;99514.56;;;11.63;100.00
2681;BME280;1350;42.134;24.708;2022-12-07T07:37:27;99519.72;;;11.66;100.00
2681;BME280;1350;42.134;24.708;2022-12-07T07:39:54;99526.53;;;11.70;100.00
2681;BME280;1350;42.134;24.708;2022-12-07T07:42:23;99530.75;;;11.74;100.00
2681;BME280;1350;42.134;24.708;2022-12-07T07:44:49;99532.88;;;11.21;100.00
2681;BME280;1350;42.134;24.708;2022-12-07T07:47:16;99538.94;;;10.92;100.00
2681;BME280;1350;42.134;24.708;2022-12-07T07:49:43;99539.63;;;11.42;100.00
2681;BME280;1350;42.134;24.708;2022-12-07T07:52:10;99533.94;;;11.95;100.00
2681;BME280;1350;42.134;24.708;2022-12-07T07:54:36;99543.09;;;12.63;100.00
2681;BME280;1350;42.134;24.708;2022-12-07T07:57:03;99529.16;;;13.01;99.35
2681;BME280;1350;42.134;24.708;2022-12-07T07:59:31;99531.22;;;13.38;97.52
2681;BME280;1350;42.134;24.708;2022-12-07T08:01:58;99533.38;;;13.73;93.39
2681;BME280;1350;42.134;24.708;2022-12-07T08:04:25;99539.19;;;13.79;92.22
2681;BME280;1350;42.134;24.708;2022-12-07T08:06:51;99527.63;;;14.05;90.72
2681;BME280;1350;42.134;24.708;2022-12-07T08:09:18;99532.50;;;14.25;87.64
2681;BME280;1350;42.134;24.708;2022-12-07T08:11:45;99532.09;;;14.69;85.53
2681;BME280;1350;42.134;24.708;2022-12-07T08:14:12;99529.28;;;15.20;84.51
2681;BME280;1350;42.134;24.708;2022-12-07T08:16:40;99533.97;;;15.66;82.09
2681;BME280;1350;42.134;24.708;2022-12-07T08:19:06;99533.03;;;16.25;80.02
2681;BME280;1350;42.134;24.708;2022-12-07T08:21:33;99532.44;;;16.89;74.54
2681;BME280;1350;42.134;24.708;2022-12-07T08:24:00;99527.19;;;17.32;70.83
2681;BME280;1350;42.134;24.708;2022-12-07T08:26:27;99522.19;;;17.38;68.09
2681;BME280;1350;42.134;24.708;2022-12-07T08:28:53;99524.16;;;17.47;67.94
2681;BME280;1350;42.134;24.708;2022-12-07T08:31:20;99529.78;;;17.87;65.91
2681;BME280;1350;42.134;24.708;2022-12-07T08:33:48;99524.19;;;18.42;63.81
2681;BME280;1350;42.134;24.708;2022-12-07T08:36:16;99519.91;;;18.81;61.28
2681;BME280;1350;42.134;24.708;2022-12-07T08:38:43;99522.63;;;18.39;65.69
2681;BME280;1350;42.134;24.708;2022-12-07T08:41:10;99516.63;;;18.98;66.38
2681;BME280;1350;42.134;24.708;2022-12-07T08:43:36;99519.66;;;19.44;64.02
2681;BME280;1350;42.134;24.708;2022-12-07T08:46:09;99511.66;;;19.82;58.80
2681;BME280;1350;42.134;24.708;2022-12-07T08:48:40;99514.22;;;19.93;57.16
2681;BME280;1350;42.134;24.708;2022-12-07T08:51:09;99507.69;;;20.05;55.69
2681;BME280;1350;42.134;24.708;2022-12-07T08:53:38;99506.88;;;20.24;58.68
2681;BME280;1350;42.134;24.708;2022-12-07T08:56:07;99509.50;;;20.71;56.09
2681;BME280;1350;42.134;24.708;2022-12-07T08:58:34;99505.47;;;21.04;56.21
2681;BME280;1350;42.134;24.708;2022-12-07T09:01:02;99502.66;;;20.96;53.46
2681;BME280;1350;42.134;24.708;2022-12-07T09:03:29;99504.84;;;20.73;53.51
2681;BME280;1350;42.134;24.708;2022-12-07T09:05:56;99497.94;;;20.42;53.81
2681;BME280;1350;42.134;24.708;2022-12-07T09:08:28;99489.75;;;20.25;53.31
2681;BME280;1350;42.134;24.708;2022-12-07T09:10:56;99481.91;;;19.83;53.97
2681;BME280;1350;42.134;24.708;2022-12-07T09:13:23;99472.03;;;20.13;55.04
2681;BME280;1350;42.134;24.708;2022-12-07T09:15:50;99469.66;;;20.75;53.63
2681;BME280;1350;42.134;24.708;2022-12-07T09:18:17;99467.84;;;20.56;53.95
2681;BME280;1350;42.134;24.708;2022-12-07T09:20:44;99464.25;;;20.75;54.17
2681;BME280;1350;42.134;24.708;2022-12-07T09:23:10;99463.00;;;21.15;53.14
2681;BME280;1350;42.134;24.708;2022-12-07T09:25:38;99455.84;;;21.51;52.10
2681;BME280;1350;42.134;24.708;2022-12-07T09:28:05;99453.88;;;21.88;50.41
2681;BME280;1350;42.134;24.708;2022-12-07T09:30:32;99450.13;;;21.71;50.43
2681;BME280;1350;42.134;24.708;2022-12-07T09:32:59;99451.69;;;20.56;51.60
2681;BME280;1350;42.134;24.708;2022-12-07T09:35:26;99441.91;;;20.65;51.56
2681;BME280;1350;42.134;24.708;2022-12-07T09:37:53;99444.56;;;21.11;52.37
2681;BME280;1350;42.134;24.708;2022-12-07T09:40:20;99437.66;;;21.26;51.39
2681;BME280;1350;42.134;24.708;2022-12-07T09:42:52;99435.00;;;21.61;48.94
2681;BME280;1350;42.134;24.708;2022-12-07T09:45:24;99431.13;;;20.92;50.05
2681;BME280;1350;42.134;24.708;2022-12-07T09:47:51;99428.59;;;21.00;49.39
2681;BME280;1350;42.134;24.708;2022-12-07T09:50:21;99422.66;;;21.41;50.49
2681;BME280;1350;42.134;24.708;2022-12-07T09:52:50;99413.13;;;22.17;49.11
2681;BME280;1350;42.134;24.708;2022-12-07T09:55:24;99401.03;;;21.86;48.07
2681;BME280;1350;42.134;24.708;2022-12-07T09:57:54;99414.16;;;21.81;47.87
2681;BME280;1350;42.134;24.708;2022-12-07T10:00:23;99417.94;;;21.25;49.01
2681;BME280;1350;42.134;24.708;2022-12-07T10:02:54;99416.31;;;20.03;50.90
2681;BME280;1350;42.134;24.708;2022-12-07T10:05:24;99408.22;;;20.78;50.96
2681;BME280;1350;42.134;24.708;2022-12-07T10:07:52;99407.69;;;21.46;49.49
2681;BME280;1350;42.134;24.708;2022-12-07T10:10:24;99408.44;;;22.01;48.54
2681;BME280;1350;42.134;24.708;2022-12-07T10:12:58;99406.66;;;22.35;46.74
2681;BME280;1350;42.134;24.708;2022-12-07T10:15:45;99407.66;;;20.75;49.75
2681;BME280;1350;42.134;24.708;2022-12-07T10:18:27;99398.91;;;20.07;50.50
2681;BME280;1350;42.134;24.708;2022-12-07T10:21:03;99390.69;;;19.80;51.22
2681;BME280;1350;42.134;24.708;2022-12-07T10:23:30;99390.06;;;20.80;49.93
2681;BME280;1350;42.134;24.708;2022-12-07T10:25:57;99368.63;;;21.50;49.85
2681;BME280;1350;42.134;24.708;2022-12-07T10:28:33;99367.19;;;22.42;47.71
2681;BME280;1350;42.134;24.708;2022-12-07T10:31:02;99372.28;;;22.20;47.01
2681;BME280;1350;42.134;24.708;2022-12-07T10:33:34;99376.03;;;21.48;46.43
2681;BME280;1350;42.134;24.708;2022-12-07T10:36:17;99370.78;;;21.29;47.08
2681;BME280;1350;42.134;24.708;2022-12-07T10:38:46;99374.41;;;21.38;47.31
2681;BME280;1350;42.134;24.708;2022-12-07T10:41:13;99376.56;;;21.52;47.44
2681;BME280;1350;42.134;24.708;2022-12-07T10:43:51;99373.03;;;21.87;46.47
2681;BME280;1350;42.134;24.708;2022-12-07T10:46:44;99376.44;;;21.71;46.52
2681;BME280;1350;42.134;24.708;2022-12-07T10:52:11;99378.75;;;20.11;49.00
2681;BME280;1350;42.134;24.708;2022-12-07T10:54:50;99372.06;;;20.71;48.36
2681;BME280;1350;42.134;24.708;2022-12-07T10:57:35;99361.44;;;21.06;47.78
2681;BME280;1350;42.134;24.708;2022-12-07T11:00:13;99367.19;;;20.57;48.39
2681;BME280;1350;42.134;24.708;2022-12-07T11:02:54;99363.34;;;20.60;48.55
2681;BME280;1350;42.134;24.708;2022-12-07T11:05:28;99360.91;;;21.38;47.19
2681;BME280;1350;42.134;24.708;2022-12-07T11:08:03;99361.09;;;20.82;47.84
2681;BME280;1350;42.134;24.708;2022-12-07T11:10:39;99351.78;;;20.77;48.43
2681;BME280;1350;42.134;24.708;2022-12-07T11:13:23;99348.97;;;20.96;47.51
2681;BME280;1350;42.134;24.708;2022-12-07T11:16:06;99350.91;;;19.84;49.34
2681;BME280;1350;42.134;24.708;2022-12-07T11:18:45;99346.50;;;19.92;50.15
2681;BME280;1350;42.134;24.708;2022-12-07T11:21:20;99344.81;;;20.47;49.00
2681;BME280;1350;42.134;24.708;2022-12-07T11:23:55;99353.91;;;20.46;48.78
2681;BME280;1350;42.134;24.708;2022-12-07T11:26:39;99344.41;;;19.48;50.71
2681;BME280;1350;42.134;24.708;2022-12-07T11:29:30;99333.94;;;19.36;51.40
2681;BME280;1350;42.134;24.708;2022-12-07T11:32:11;99330.84;;;19.40;50.92
2681;BME280;1350;42.134;24.708;2022-12-07T11:34:49;99326.50;;;20.04;50.69
2681;BME280;1350;42.134;24.708;2022-12-07T11:37:23;99326.44;;;19.68;50.39
2681;BME280;1350;42.134;24.708;2022-12-07T11:39:54;99324.44;;;19.60;49.64
2681;BME280;1350;42.134;24.708;2022-12-07T11:42:26;99328.84;;;19.61;50.30
2681;BME280;1350;42.134;24.708;2022-12-07T11:44:57;99320.56;;;18.96;50.92
2681;BME280;1350;42.134;24.708;2022-12-07T11:47:34;99317.09;;;17.23;55.06
2681;BME280;1350;42.134;24.708;2022-12-07T11:50:13;99321.34;;;16.94;56.45
2681;BME280;1350;42.134;24.708;2022-12-07T11:52:48;99316.66;;;17.07;57.16
2681;BME280;1350;42.134;24.708;2022-12-07T11:55:26;99302.44;;;17.07;57.07
2681;BME280;1350;42.134;24.708;2022-12-07T11:58:03;99298.53;;;16.68;58.51
2681;BME280;1350;42.134;24.708;2022-12-07T12:00:31;99303.69;;;16.80;58.39
2681;BME280;1350;42.134;24.708;2022-12-07T12:03:04;99298.88;;;17.06;58.17
2681;BME280;1350;42.134;24.708;2022-12-07T12:05:35;99299.91;;;16.94;58.61
2681;BME280;1350;42.134;24.708;2022-12-07T12:08:12;99294.13;;;16.67;59.36
2681;BME280;1350;42.134;24.708;2022-12-07T12:10:50;99294.53;;;16.29;60.70
2681;BME280;1350;42.134;24.708;2022-12-07T12:13:48;99295.50;;;16.06;62.73
2681;BME280;1350;42.134;24.708;2022-12-07T12:16:43;99289.75;;;16.33;62.40
2681;BME280;1350;42.134;24.708;2022-12-07T12:19:24;99289.41;;;16.37;62.31
2681;BME280;1350;42.134;24.708;2022-12-07T12:21:56;99287.00;;;16.34;63.45
2681;BME280;1350;42.134;24.708;2022-12-07T12:24:26;99283.28;;;16.68;62.84
2681;BME280;1350;42.134;24.708;2022-12-07T12:26:57;99280.34;;;16.71;62.72
2681;BME280;1350;42.134;24.708;2022-12-07T12:29:30;99275.97;;;16.81;62.89
2681;BME280;1350;42.134;24.708;2022-12-07T12:32:07;99275.47;;;16.76;62.44
2681;BME280;1350;42.134;24.708;2022-12-07T12:34:41;99271.28;;;16.30;63.34
2681;BME280;1350;42.134;24.708;2022-12-07T12:37:40;99270.09;;;15.90;65.68
2681;BME280;1350;42.134;24.708;2022-12-07T12:40:39;99264.47;;;16.37;64.68
2681;BME280;1350;42.134;24.708;2022-12-07T12:46:51;99260.13;;;15.35;68.89
2681;BME280;1350;42.134;24.708;2022-12-07T12:49:41;99258.72;;;15.07;71.88
2681;BME280;1350;42.134;24.708;2022-12-07T12:52:46;99261.81;;;14.90;73.13
2681;BME280;1350;42.134;24.708;2022-12-07T12:58:29;99259.06;;;15.03;73.22
2681;BME280;1350;42.134;24.708;2022-12-07T13:04:01;99257.66;;;14.63;77.09
2681;BME280;1350;42.134;24.708;2022-12-07T13:06:35;99254.19;;;14.73;77.78
2681;BME280;1350;42.134;24.708;2022-12-07T13:09:18;99253.38;;;14.37;80.68
2681;BME280;1350;42.134;24.708;2022-12-07T13:11:47;99253.13;;;14.52;81.97
2681;BME280;1350;42.134;24.708;2022-12-07T13:14:39;99250.34;;;14.54;81.26
2681;BME280;1350;42.134;24.708;2022-12-07T13:17:08;99252.38;;;14.74;80.59
2681;BME280;1350;42.134;24.708;2022-12-07T13:19:57;99249.94;;;14.47;82.07
2681;BME280;1350;42.134;24.708;2022-12-07T13:22:50;99249.16;;;14.09;85.10
2681;BME280;1350;42.134;24.708;2022-12-07T13:25:23;99254.06;;;14.28;83.84
2681;BME280;1350;42.134;24.708;2022-12-07T13:27:57;99257.69;;;14.27;84.65
2681;BME280;1350;42.134;24.708;2022-12-07T13:30:28;99256.91;;;14.61;82.97
2681;BME280;1350;42.134;24.708;2022-12-07T13:32:58;99261.25;;;14.51;82.50
2681;BME280;1350;42.134;24.708;2022-12-07T13:35:30;99264.81;;;14.39;83.36
2681;BME280;1350;42.134;24.708;2022-12-07T13:38:01;99260.75;;;14.21;84.55
2681;BME280;1350;42.134;24.708;2022-12-07T13:40:29;99262.75;;;14.42;84.40
2681;BME280;1350;42.134;24.708;2022-12-07T13:43:01;99255.22;;;14.60;83.26
2681;BME280;1350;42.134;24.708;2022-12-07T13:45:29;99257.44;;;14.66;83.40
2681;BME280;1350;42.134;24.708;2022-12-07T13:48:16;99256.56;;;14.65;83.02